Terminal Aerodrome Forecast
Issued by NWS Goodland, KS

Home | Current Version | Previous Version | Text Only | Print | Product List | Glossary On
Versions: 1 2 3 4 5 6 7 8 9 10 11 12 13 14
000
FTUS43 KGLD 201120
TAFGLD
TAF
KGLD 201120Z 2012/2112 19013KT P6SM FEW100 SCT150 BKN250
     FM201600 20011KT P6SM FEW150 SCT250
     FM202200 19012KT P6SM VCTS SCT100CB BKN200
     FM210300 VRB05KT P6SM BKN150
     FM211100 29007KT P6SM SCT150 SCT250=

USA.gov is the U.S. government's official web portal to all federal, state and local government web resources and services.